Time;durP1;ratioP1;P1;durP2;ratioP2;P2;SDS_P1;SDS_P2;PMS_P1;PMS_P2;Temp;Humidity;BMP_temperature;BMP_pressure;BME280_temperature;BME280_humidity;BME280_pressure;Samples;Min_cycle;Max_cycle;Signal;HPM_P1;HPM_P2
2022/10/01 00:01:13;;;;;;;5.43;3.05;;;;;;;13.30;100.00;100364.88;4957537;29;20038;-87
2022/10/01 00:03:39;;;;;;;7.03;3.10;;;;;;;13.22;100.00;100357.00;4957523;29;20035;-87
2022/10/01 00:06:11;;;;;;;5.55;3.20;;;;;;;13.15;100.00;100359.56;4957514;29;20035;-88
2022/10/01 00:08:39;;;;;;;10.18;3.42;;;;;;;13.14;100.00;100354.41;4957514;29;20496;-84
2022/10/01 00:11:13;;;;;;;7.22;4.03;;;;;;;13.04;100.00;100354.66;4957790;29;20031;-89
2022/10/01 00:13:41;;;;;;;8.85;4.07;;;;;;;13.13;100.00;100352.75;4957614;29;20042;-85
2022/10/01 00:16:11;;;;;;;7.93;4.15;;;;;;;13.06;100.00;100351.81;4957011;29;20086;-85
2022/10/01 00:18:39;;;;;;;9.02;4.13;;;;;;;13.01;100.00;100351.53;4957297;29;20047;-85
2022/10/01 00:21:06;;;;;;;9.38;3.72;;;;;;;13.17;100.00;100351.38;4957660;29;20035;-86
2022/10/01 00:23:32;;;;;;;8.55;4.00;;;;;;;13.13;100.00;100352.75;4957350;29;20031;-85
2022/10/01 00:26:07;;;;;;;6.03;3.50;;;;;;;13.23;100.00;100348.81;4957182;29;20480;-82
2022/10/01 00:28:33;;;;;;;9.02;3.20;;;;;;;13.30;100.00;100348.91;4957217;29;20333;-88
2022/10/01 00:30:58;;;;;;;7.22;3.65;;;;;;;13.37;100.00;100348.00;4957020;29;20031;-86
2022/10/01 00:33:25;;;;;;;8.52;3.60;;;;;;;13.33;100.00;100356.53;4956944;29;20083;-86
2022/10/01 00:35:53;;;;;;;10.38;3.45;;;;;;;13.25;100.00;100364.63;4957037;29;20053;-85
2022/10/01 00:38:20;;;;;;;7.38;3.70;;;;;;;13.11;100.00;100370.75;4957127;29;20485;-86
2022/10/01 00:40:45;;;;;;;7.32;3.17;;;;;;;12.96;100.00;100363.53;4956998;29;20047;-86
2022/10/01 00:43:19;;;;;;;4.70;3.33;;;;;;;12.85;100.00;100371.97;4939561;29;20032;-86
2022/10/01 00:45:45;;;;;;;7.78;3.65;;;;;;;12.81;100.00;100381.31;4956266;28;20039;-85
2022/10/01 00:48:10;;;;;;;5.85;3.38;;;;;;;12.80;100.00;100390.28;4956705;29;20035;-86
2022/10/01 00:50:37;;;;;;;9.02;4.05;;;;;;;12.75;100.00;100384.69;4959598;29;20126;-88
2022/10/01 00:53:07;;;;;;;6.00;3.65;;;;;;;12.85;100.00;100387.94;4957688;29;20032;-85
2022/10/01 00:55:40;;;;;;;6.30;3.95;;;;;;;12.79;100.00;100383.31;4958747;29;20460;-88
2022/10/01 00:58:09;;;;;;;6.50;3.70;;;;;;;12.78;100.00;100384.34;4958735;29;20107;-85
2022/10/01 01:00:36;;;;;;;7.60;3.85;;;;;;;12.81;100.00;100389.28;4958699;29;20042;-88
2022/10/01 01:03:03;;;;;;;3.42;3.00;;;;;;;12.83;100.00;100391.75;4958533;29;20107;-88
2022/10/01 01:05:29;;;;;;;7.35;3.15;;;;;;;12.91;100.00;100400.50;4958718;29;20024;-87
2022/10/01 01:07:55;;;;;;;4.65;3.60;;;;;;;12.92;100.00;100391.53;4958948;29;20058;-88
2022/10/01 01:10:30;;;;;;;5.32;3.08;;;;;;;13.01;100.00;100392.28;4958228;29;20106;-87
2022/10/01 01:13:11;;;;;;;6.57;3.08;;;;;;;13.21;100.00;100400.59;4957652;29;20035;-87
2022/10/01 01:15:37;;;;;;;5.00;2.83;;;;;;;13.12;100.00;100394.53;4957608;29;20047;-85
2022/10/01 01:18:10;;;;;;;3.85;2.08;;;;;;;13.00;100.00;100397.75;4957179;29;20027;-83
2022/10/01 01:21:01;;;;;;;9.45;2.42;;;;;;;13.06;100.00;100400.50;4960826;29;20055;-88
2022/10/01 01:23:52;;;;;;;2.30;2.00;;;;;;;12.98;100.00;100405.09;4968701;29;20043;-81
2022/10/01 01:26:33;;;;;;;5.03;2.38;;;;;;;12.96;100.00;100403.44;4964606;29;20134;-80
2022/10/01 01:29:19;;;;;;;3.95;1.65;;;;;;;13.10;100.00;100411.66;4977001;29;20070;-85
2022/10/01 01:31:46;;;;;;;3.53;2.00;;;;;;;13.06;100.00;100405.03;4974029;29;20130;-81
2022/10/01 01:34:18;;;;;;;4.47;2.00;;;;;;;12.89;100.00;100404.34;4961754;29;20374;-82
2022/10/01 01:36:49;;;;;;;2.85;1.80;;;;;;;12.87;100.00;100406.34;4955985;29;20046;-81
2022/10/01 01:39:16;;;;;;;8.27;1.98;;;;;;;12.89;100.00;100399.84;4956071;29;20028;-84
2022/10/01 01:41:48;;;;;;;4.55;2.42;;;;;;;12.84;100.00;100404.88;4938838;29;20023;-81
2022/10/01 01:44:20;;;;;;;4.65;1.83;;;;;;;12.79;100.00;100409.91;4955733;29;20051;-82
2022/10/01 01:46:48;;;;;;;3.60;2.00;;;;;;;12.78;100.00;100410.94;4955592;29;20397;-82
2022/10/01 01:49:19;;;;;;;12.02;2.10;;;;;;;12.79;100.00;100417.88;4955590;29;20049;-82
2022/10/01 01:51:55;;;;;;;4.30;1.85;;;;;;;12.74;100.00;100412.28;4956015;29;20046;-82
2022/10/01 01:54:20;;;;;;;7.82;1.92;;;;;;;12.77;100.00;100417.25;4955349;29;20052;-83
2022/10/01 01:56:48;;;;;;;5.40;1.60;;;;;;;12.78;100.00;100428.72;4954744;28;20031;-82
2022/10/01 01:59:17;;;;;;;7.18;2.08;;;;;;;12.66;100.00;100422.97;4937676;29;20039;-82
2022/10/01 02:01:43;;;;;;;2.13;1.80;;;;;;;12.66;100.00;100425.63;4955559;29;20027;-81
2022/10/01 02:04:22;;;;;;;3.60;1.67;;;;;;;12.70;100.00;100421.63;4955171;29;20070;-82
2022/10/01 02:07:23;;;;;;;2.47;1.77;;;;;;;12.72;100.00;100424.13;4955029;29;20376;-81
2022/10/01 02:09:53;;;;;;;3.95;1.92;;;;;;;12.67;100.00;100421.97;4955031;29;20421;-82
2022/10/01 02:12:36;;;;;;;5.88;2.60;;;;;;;12.61;100.00;100417.38;4956053;29;20035;-81
2022/10/01 02:15:24;;;;;;;6.10;4.00;;;;;;;12.63;100.00;100420.66;4956356;29;20074;-87
2022/10/01 02:18:02;;;;;;;10.98;6.63;;;;;;;12.68;100.00;100418.31;4937845;29;20089;-87
2022/10/01 02:20:34;;;;;;;12.15;8.00;;;;;;;12.68;100.00;100414.81;4955422;29;20031;-86
2022/10/01 02:23:10;;;;;;;18.98;9.38;;;;;;;12.68;100.00;100418.31;4955113;29;20050;-85
2022/10/01 02:25:51;;;;;;;18.90;10.45;;;;;;;12.64;100.00;100424.16;4955274;29;20040;-86
2022/10/01 02:28:22;;;;;;;18.60;11.85;;;;;;;12.64;100.00;100406.38;4955312;29;20032;-85
2022/10/01 02:30:50;;;;;;;18.85;12.02;;;;;;;12.63;100.00;100407.38;4955350;29;20062;-86
2022/10/01 02:33:20;;;;;;;18.33;12.73;;;;;;;12.67;100.00;100406.03;4955314;29;20516;-87
2022/10/01 02:35:49;;;;;;;21.63;12.65;;;;;;;12.84;100.00;100406.72;4938320;29;20047;-85
2022/10/01 02:38:17;;;;;;;21.65;11.40;;;;;;;12.92;100.00;100398.69;4955398;29;20031;-84
2022/10/01 02:40:45;;;;;;;17.30;10.13;;;;;;;12.99;100.00;100393.47;4955753;29;20035;-87
2022/10/01 02:43:37;;;;;;;16.85;10.45;;;;;;;13.00;100.00;100389.78;4955093;29;20489;-87
2022/10/01 02:46:13;;;;;;;17.08;8.88;;;;;;;12.75;100.00;100395.34;4946255;29;20586;-88
2022/10/01 02:48:39;;;;;;;15.40;8.55;;;;;;;12.57;100.00;100394.81;4955122;29;20036;-85
2022/10/01 02:51:14;;;;;;;15.57;7.72;;;;;;;12.49;100.00;100397.53;4954708;29;20094;-84
2022/10/01 02:53:46;;;;;;;9.43;5.80;;;;;;;12.54;100.00;100395.16;4954565;29;20045;-86
2022/10/01 02:57:21;;;;;;;8.43;4.47;;;;;;;12.60;100.00;100397.09;4955142;29;20043;-88
2022/10/01 02:59:00;;;;;;;10.63;4.03;;;;;;;12.40;100.00;100409.22;4954422;29;20047;-86
2022/10/01 03:01:26;;;;;;;7.00;4.32;;;;;;;12.34;100.00;100400.13;4955267;29;20039;-83
2022/10/01 03:03:53;;;;;;;5.25;3.50;;;;;;;12.29;100.00;100396.34;4942337;29;20040;-86
2022/10/01 03:06:18;;;;;;;7.65;3.65;;;;;;;12.27;100.00;100396.50;4955665;29;20051;-83
2022/10/01 03:08:44;;;;;;;10.80;3.42;;;;;;;12.33;100.00;100397.63;4955156;28;20038;-85
2022/10/01 03:11:09;;;;;;;8.35;3.20;;;;;;;12.52;100.00;100407.81;4958359;29;20035;-85
2022/10/01 03:13:35;;;;;;;7.10;3.92;;;;;;;12.30;100.00;100395.31;4958277;29;20045;-86
2022/10/01 03:16:01;;;;;;;5.75;4.15;;;;;;;12.24;100.00;100398.69;4958768;29;20039;-86
2022/10/01 03:18:26;;;;;;;6.07;3.63;;;;;;;12.19;100.00;100395.75;4958966;29;20075;-85
2022/10/01 03:20:52;;;;;;;6.85;4.20;;;;;;;12.22;100.00;100406.00;4958661;29;20097;-83
2022/10/01 03:23:17;;;;;;;8.48;4.53;;;;;;;12.16;100.00;100396.09;4958650;29;20077;-85
2022/10/01 03:25:43;;;;;;;5.82;4.10;;;;;;;12.11;100.00;100399.28;4958368;29;20074;-86
2022/10/01 03:28:08;;;;;;;9.10;5.05;;;;;;;12.18;100.00;100399.41;4958342;29;20038;-82
2022/10/01 03:30:34;;;;;;;9.35;4.97;;;;;;;12.21;100.00;100401.69;4958125;29;20513;-84
2022/10/01 03:32:59;;;;;;;10.05;4.60;;;;;;;12.15;100.00;100399.75;4958090;29;20051;-87
2022/10/01 03:35:25;;;;;;;12.27;5.45;;;;;;;12.12;100.00;100400.94;4959054;29;20094;-84
2022/10/01 03:37:50;;;;;;;23.65;5.15;;;;;;;12.13;100.00;100402.56;4959927;29;20043;-89
2022/10/01 03:40:16;;;;;;;10.30;5.43;;;;;;;12.25;100.00;100403.00;4958309;29;20090;-88
2022/10/01 03:42:41;;;;;;;8.48;5.57;;;;;;;12.37;100.00;100399.75;4958617;29;20082;-87
2022/10/01 03:45:07;;;;;;;13.43;6.68;;;;;;;12.42;100.00;100410.72;4957871;29;20101;-88
2022/10/01 03:47:33;;;;;;;9.80;6.90;;;;;;;12.55;100.00;100411.94;4940623;29;20500;-87
2022/10/01 03:49:58;;;;;;;10.20;6.80;;;;;;;12.50;100.00;100424.91;4958027;29;20042;-88
2022/10/01 03:52:24;;;;;;;10.02;6.47;;;;;;;12.58;100.00;100423.06;4957461;29;20027;-89
2022/10/01 03:54:49;;;;;;;10.60;6.53;;;;;;;12.65;100.00;100418.69;4940149;29;20055;-88
2022/10/01 03:57:15;;;;;;;14.82;6.78;;;;;;;12.66;100.00;100415.00;4957594;29;20114;-89
2022/10/01 03:59:41;;;;;;;10.20;5.97;;;;;;;12.54;100.00;100416.44;4940899;29;20031;-86
2022/10/01 04:02:07;;;;;;;8.07;5.10;;;;;;;12.62;100.00;100424.34;4940782;29;20039;-89
2022/10/01 04:04:33;;;;;;;12.85;5.38;;;;;;;12.50;100.00;100431.06;4958193;29;20031;-90
2022/10/01 04:06:58;;;;;;;9.60;5.53;;;;;;;12.54;100.00;100423.56;4957760;29;20035;-88
2022/10/01 04:09:24;;;;;;;11.07;5.60;;;;;;;12.45;100.00;100433.44;4958553;29;20051;-87
2022/10/01 04:11:49;;;;;;;9.43;5.30;;;;;;;12.51;100.00;100440.72;4957786;29;20038;-86
2022/10/01 04:14:15;;;;;;;7.55;4.95;;;;;;;12.40;100.00;100433.13;4957679;29;20039;-88
2022/10/01 04:16:40;;;;;;;8.00;4.63;;;;;;;12.31;100.00;100435.03;4958070;29;20163;-87
2022/10/01 04:19:06;;;;;;;13.93;6.20;;;;;;;12.24;100.00;100435.88;4958166;28;20059;-84
2022/10/01 04:21:32;;;;;;;9.57;4.45;;;;;;;12.19;100.00;100444.41;4957444;29;20027;-86
2022/10/01 04:23:59;;;;;;;7.72;5.63;;;;;;;12.24;100.00;100433.22;4958413;29;20122;-85
2022/10/01 04:26:25;;;;;;;8.40;5.30;;;;;;;12.13;100.00;100441.59;4962829;29;20448;-82
2022/10/01 04:28:51;;;;;;;69.30;54.20;;;;;;;12.07;100.00;100445.78;4939782;29;20074;-82
2022/10/01 04:31:23;;;;;;;9.82;4.63;;;;;;;11.96;100.00;100453.31;4939995;29;20086;-82
2022/10/01 04:33:49;;;;;;;8.57;6.25;;;;;;;12.09;100.00;100442.94;4956881;29;20035;-80
2022/10/01 04:36:14;;;;;;;9.82;6.70;;;;;;;12.15;100.00;100436.94;4956966;29;20043;-82
2022/10/01 04:38:40;;;;;;;19.17;14.45;;;;;;;12.17;100.00;100429.59;4956690;29;20461;-81
2022/10/01 04:41:06;;;;;;;10.85;6.05;;;;;;;12.14;100.00;100435.28;4957066;29;20031;-80
2022/10/01 04:43:31;;;;;;;10.90;6.68;;;;;;;12.28;100.00;100431.88;4956609;29;20139;-81
2022/10/01 04:45:57;;;;;;;6.40;4.72;;;;;;;12.17;100.00;100432.25;4956812;29;20035;-82
2022/10/01 04:48:23;;;;;;;9.50;4.72;;;;;;;12.06;100.00;100427.38;4956963;29;20047;-83
2022/10/01 04:50:48;;;;;;;16.88;5.43;;;;;;;12.04;100.00;100434.66;4956747;29;20037;-80
2022/10/01 04:53:14;;;;;;;9.38;5.45;;;;;;;12.01;100.00;100432.34;4956682;29;20129;-83
2022/10/01 04:55:41;;;;;;;10.63;5.72;;;;;;;11.99;100.00;100431.72;4956991;29;20043;-84
2022/10/01 04:58:06;;;;;;;10.57;5.78;;;;;;;11.96;100.00;100435.56;4956779;29;20042;-79
2022/10/01 05:00:32;;;;;;;8.65;5.43;;;;;;;11.86;100.00;100430.41;4960632;29;20032;-82
2022/10/01 05:02:58;;;;;;;14.07;6.13;;;;;;;11.67;100.00;100448.56;4941557;29;20558;-83
2022/10/01 05:05:26;;;;;;;15.90;6.30;;;;;;;11.55;100.00;100449.94;4954626;29;20039;-82
2022/10/01 05:07:51;;;;;;;10.20;5.43;;;;;;;11.52;100.00;100452.91;4954119;29;20627;-79
2022/10/01 05:10:23;;;;;;;9.95;5.00;;;;;;;11.51;100.00;100454.75;4954451;29;20114;-84
2022/10/01 05:12:50;;;;;;;6.93;4.55;;;;;;;11.49;100.00;100445.31;4921594;29;20043;-82
2022/10/01 05:15:16;;;;;;;9.80;4.00;;;;;;;11.52;100.00;100445.78;4954029;29;20106;-82
2022/10/01 05:17:42;;;;;;;9.15;4.70;;;;;;;11.58;100.00;100449.59;4938292;29;20453;-83
2022/10/01 05:20:14;;;;;;;6.60;4.50;;;;;;;11.63;100.00;100456.06;4956406;29;20035;-83
2022/10/01 05:22:40;;;;;;;9.23;4.68;;;;;;;11.70;100.00;100449.06;4956175;29;20474;-81
2022/10/01 05:25:06;;;;;;;6.68;4.22;;;;;;;11.91;100.00;100454.66;4955895;29;20039;-82
2022/10/01 05:27:36;;;;;;;9.60;4.20;;;;;;;11.97;100.00;100454.94;4958749;29;20058;-83
2022/10/01 05:30:04;;;;;;;4.97;3.33;;;;;;;12.00;100.00;100459.94;4956366;29;20086;-82
2022/10/01 05:32:30;;;;;;;6.13;3.42;;;;;;;12.19;100.00;100451.53;4954853;28;20043;-83
2022/10/01 05:34:56;;;;;;;7.95;3.70;;;;;;;12.51;100.00;100459.31;4955660;29;20508;-87
2022/10/01 05:37:21;;;;;;;8.95;3.47;;;;;;;12.82;100.00;100452.13;4955739;29;20031;-84
2022/10/01 05:39:47;;;;;;;12.15;3.67;;;;;;;13.02;100.00;100446.31;4938917;29;20091;-84
2022/10/01 05:42:12;;;;;;;5.90;2.97;;;;;;;13.12;100.00;100450.41;4956112;29;20027;-85
2022/10/01 05:44:39;;;;;;;6.97;3.15;;;;;;;13.29;100.00;100448.44;4958247;29;20090;-84
2022/10/01 05:47:06;;;;;;;4.57;3.28;;;;;;;13.76;100.00;100462.22;4959602;29;20035;-84
2022/10/01 05:49:32;;;;;;;6.63;3.03;;;;;;;13.77;100.00;100471.03;4961732;28;20046;-83
2022/10/01 05:51:59;;;;;;;4.55;2.47;;;;;;;14.12;100.00;100486.25;4964487;28;20027;-83
2022/10/01 05:54:28;;;;;;;13.52;2.75;;;;;;;13.65;100.00;100491.97;4975643;29;20071;-83
2022/10/01 05:56:54;;;;;;;10.10;2.85;;;;;;;13.48;100.00;100487.81;4970851;29;20035;-81
2022/10/01 05:59:19;;;;;;;6.65;2.70;;;;;;;14.07;100.00;100493.16;4972381;28;20023;-83
2022/10/01 06:01:45;;;;;;;4.00;2.13;;;;;;;14.78;100.00;100500.41;4974669;28;20482;-82
2022/10/01 06:04:10;;;;;;;5.70;2.70;;;;;;;15.45;100.00;100509.63;4955585;29;20039;-84
2022/10/01 06:06:36;;;;;;;4.75;2.92;;;;;;;15.21;100.00;100511.91;4955405;29;20065;-83
2022/10/01 06:09:02;;;;;;;7.60;2.45;;;;;;;15.07;100.00;100515.44;4955817;29;20126;-81
2022/10/01 06:11:27;;;;;;;6.22;2.10;;;;;;;14.84;100.00;100510.31;4957076;29;20087;-83
2022/10/01 06:13:53;;;;;;;4.65;2.30;;;;;;;14.70;100.00;100517.34;4956218;29;20055;-83
2022/10/01 06:16:19;;;;;;;6.97;2.45;;;;;;;14.58;100.00;100505.53;4956591;29;20041;-84
2022/10/01 06:18:47;;;;;;;4.70;2.47;;;;;;;14.85;100.00;100512.78;4955922;29;20041;-83
2022/10/01 06:21:13;;;;;;;4.72;2.78;;;;;;;15.66;100.00;100532.81;4955627;29;20043;-82
2022/10/01 06:23:38;;;;;;;13.52;2.80;;;;;;;15.70;100.00;100528.75;4957236;29;20042;-81
2022/10/01 06:26:04;;;;;;;14.80;2.33;;;;;;;16.37;100.00;100533.44;4955409;29;20031;-84
2022/10/01 06:28:31;;;;;;;4.22;2.17;;;;;;;16.72;100.00;100531.53;4955085;29;20046;-84
2022/10/01 06:30:56;;;;;;;4.55;2.15;;;;;;;17.67;100.00;100533.91;4955138;29;20062;-84
2022/10/01 06:33:22;;;;;;;4.93;2.08;;;;;;;17.74;100.00;100529.38;4955070;29;20106;-85
2022/10/01 06:35:49;;;;;;;7.65;2.10;;;;;;;17.56;100.00;100535.38;4954542;29;20075;-83
2022/10/01 06:38:18;;;;;;;12.05;2.00;;;;;;;17.02;100.00;100538.19;4954602;29;20039;-84
2022/10/01 06:40:53;;;;;;;6.07;1.60;;;;;;;17.51;100.00;100540.50;4954925;29;20563;-84
2022/10/01 06:43:18;;;;;;;15.35;2.38;;;;;;;17.31;100.00;100545.84;4955976;28;20041;-84
2022/10/01 06:45:44;;;;;;;7.28;2.22;;;;;;;17.25;100.00;100545.84;4958765;29;20492;-83
2022/10/01 06:48:13;;;;;;;9.13;2.33;;;;;;;17.19;100.00;100544.00;4958599;29;20388;-83
2022/10/01 06:50:40;;;;;;;4.93;1.90;;;;;;;17.64;100.00;100553.91;4958877;29;20486;-85
2022/10/01 06:53:06;;;;;;;7.18;2.42;;;;;;;18.37;100.00;100562.66;4958682;29;20087;-84
2022/10/01 06:55:34;;;;;;;3.70;2.30;;;;;;;18.18;100.00;100574.25;4958259;29;20031;-83
2022/10/01 06:58:04;;;;;;;4.97;2.45;;;;;;;18.29;100.00;100576.31;4941263;29;20031;-84
2022/10/01 07:00:32;;;;;;;8.35;2.47;;;;;;;18.31;100.00;100575.06;4958398;29;20038;-82
2022/10/01 07:02:59;;;;;;;7.70;2.60;;;;;;;18.52;100.00;100576.69;4958210;29;20477;-84
2022/10/01 07:05:25;;;;;;;12.18;3.00;;;;;;;18.58;100.00;100575.81;4958488;29;20082;-84
2022/10/01 07:07:52;;;;;;;3.70;2.65;;;;;;;18.71;100.00;100559.66;4958391;29;20150;-86
2022/10/01 07:10:19;;;;;;;6.47;2.92;;;;;;;18.76;100.00;100559.03;4959112;29;20031;-87
2022/10/01 07:12:47;;;;;;;5.35;2.90;;;;;;;19.29;100.00;100556.84;4958776;29;20477;-85
2022/10/01 07:15:15;;;;;;;5.05;3.85;;;;;;;19.12;100.00;100544.97;4941935;29;20044;-86
2022/10/01 07:17:48;;;;;;;8.23;3.75;;;;;;;19.12;100.00;100555.72;4958779;29;20027;-85
2022/10/01 07:20:16;;;;;;;9.00;3.88;;;;;;;19.50;100.00;100564.53;4958169;29;20039;-85
2022/10/01 07:22:43;;;;;;;6.40;2.95;;;;;;;19.54;100.00;100557.69;4958220;29;20392;-86
2022/10/01 07:25:09;;;;;;;9.02;3.03;;;;;;;19.57;100.00;100568.00;4958236;29;20035;-84
2022/10/01 07:27:35;;;;;;;5.85;2.30;;;;;;;19.70;100.00;100570.59;4958383;29;20378;-85
2022/10/01 07:30:03;;;;;;;5.50;2.30;;;;;;;19.36;100.00;100573.72;4940704;29;20393;-86
2022/10/01 07:32:30;;;;;;;8.73;2.88;;;;;;;19.59;100.00;100577.50;4958695;29;20059;-84
2022/10/01 07:34:57;;;;;;;7.18;2.50;;;;;;;20.06;100.00;100573.34;4944077;29;20405;-87
2022/10/01 07:37:24;;;;;;;6.47;2.70;;;;;;;21.00;100.00;100561.25;4958438;29;20043;-88
2022/10/01 07:39:50;;;;;;;4.38;2.10;;;;;;;21.37;100.00;100568.19;4942627;29;20447;-89
2022/10/01 07:42:16;;;;;;;3.95;2.30;;;;;;;21.56;100.00;100577.84;4958061;29;20043;-87
2022/10/01 07:44:42;;;;;;;6.18;2.20;;;;;;;22.29;100.00;100576.56;4958129;29;20046;-85
2022/10/01 07:47:07;;;;;;;7.07;2.15;;;;;;;21.61;100.00;100579.81;4942808;29;20027;-85
2022/10/01 07:49:33;;;;;;;7.68;2.58;;;;;;;21.68;100.00;100585.94;4957999;29;20396;-83
2022/10/01 07:51:59;;;;;;;5.22;2.55;;;;;;;20.93;100.00;100585.59;4957699;29;20059;-84
2022/10/01 07:54:24;;;;;;;4.88;2.67;;;;;;;20.83;100.00;100577.22;4956600;28;20393;-83
2022/10/01 07:56:54;;;;;;;6.38;3.13;;;;;;;20.36;100.00;100576.16;4956997;29;20071;-85
2022/10/01 07:59:25;;;;;;;5.72;2.83;;;;;;;20.12;100.00;100569.75;4957372;29;20105;-82
2022/10/01 08:01:51;;;;;;;5.25;2.63;;;;;;;20.50;100.00;100582.22;4956987;29;20515;-83
2022/10/01 08:07:02;;;;;;;5.82;3.13;;;;;;;20.07;100.00;100582.25;4956465;29;20046;-84
2022/10/01 08:09:27;;;;;;;5.45;3.08;;;;;;;20.28;100.00;100589.94;4956498;29;20027;-84
2022/10/01 08:11:53;;;;;;;5.10;2.90;;;;;;;20.30;100.00;100590.50;4956699;29;20031;-84
2022/10/01 08:14:19;;;;;;;4.22;2.92;;;;;;;20.31;100.00;100594.03;4956229;29;20351;-81
2022/10/01 08:16:44;;;;;;;5.15;3.10;;;;;;;20.23;100.00;100594.28;4939561;29;20035;-83
2022/10/01 08:19:16;;;;;;;4.28;2.80;;;;;;;21.03;100.00;100590.44;4962546;28;20043;-83
2022/10/01 08:21:41;;;;;;;5.47;1.90;;;;;;;20.95;100.00;100599.66;4940867;29;20118;-86
2022/10/01 08:24:07;;;;;;;3.97;2.13;;;;;;;20.84;100.00;100611.22;4957044;29;20047;-84
2022/10/01 08:26:34;;;;;;;3.40;2.38;;;;;;;21.00;100.00;100613.28;4957161;29;20039;-85
2022/10/01 08:28:59;;;;;;;3.70;2.22;;;;;;;21.22;100.00;100618.19;4957490;29;20035;-83
2022/10/01 08:31:25;;;;;;;4.93;2.22;;;;;;;21.27;100.00;100623.72;4956827;29;20045;-82
2022/10/01 08:33:51;;;;;;;2.92;2.00;;;;;;;21.08;100.00;100615.63;4956766;29;20031;-83
2022/10/01 08:36:17;;;;;;;7.57;1.90;;;;;;;21.06;100.00;100608.84;4963312;29;20408;-82
2022/10/01 08:38:47;;;;;;;2.85;1.77;;;;;;;21.18;100.00;100614.31;4957784;29;20460;-82
2022/10/01 08:41:43;;;;;;;6.15;2.00;;;;;;;21.09;100.00;100619.16;4956952;29;20538;-84
2022/10/01 08:44:22;;;;;;;4.20;2.10;;;;;;;21.36;100.00;100620.47;4956782;29;20138;-83
2022/10/01 08:46:50;;;;;;;2.47;1.98;;;;;;;21.78;99.98;100613.16;4955686;29;20035;-81
2022/10/01 08:49:37;;;;;;;3.20;2.20;;;;;;;22.24;94.54;100616.97;4955876;29;20063;-83
2022/10/01 08:52:06;;;;;;;3.60;1.95;;;;;;;22.27;90.31;100620.03;4955644;29;20035;-83
2022/10/01 08:55:16;;;;;;;4.95;1.90;;;;;;;22.08;93.47;100624.72;4955551;29;20389;-83
2022/10/01 08:57:58;;;;;;;6.10;2.20;;;;;;;21.65;93.68;100618.78;4897386;29;20547;-83
2022/10/01 09:00:23;;;;;;;3.20;2.13;;;;;;;21.16;98.00;100616.41;4951029;29;20043;-81
2022/10/01 09:02:51;;;;;;;3.70;2.47;;;;;;;21.76;95.51;100614.44;4956096;29;20162;-84
2022/10/01 09:05:50;;;;;;;4.32;2.38;;;;;;;22.12;92.63;100611.56;4956302;29;20032;-84
2022/10/01 09:08:22;;;;;;;3.22;2.13;;;;;;;21.92;93.93;100603.81;4896282;29;20192;-85
2022/10/01 09:11:06;;;;;;;3.03;1.80;;;;;;;22.48;88.08;100602.34;4901313;29;20060;-82
2022/10/01 09:13:56;;;;;;;4.40;2.33;;;;;;;22.79;86.50;100601.16;4897658;29;20135;-82
2022/10/01 09:16:27;;;;;;;7.65;2.75;;;;;;;22.44;88.82;100601.19;4881927;29;20376;-84
2022/10/01 09:19:14;;;;;;;6.88;2.33;;;;;;;22.58;84.76;100610.69;4895168;29;20477;-83
2022/10/01 09:21:47;;;;;;;5.80;2.33;;;;;;;22.42;84.75;100608.72;4956528;29;20067;-83
2022/10/01 09:24:40;;;;;;;3.92;2.20;;;;;;;22.73;84.32;100602.94;4938832;29;20039;-84
2022/10/01 09:27:24;;;;;;;4.13;2.20;;;;;;;22.82;85.76;100600.66;4955122;29;20070;-83
2022/10/01 09:30:03;;;;;;;2.45;1.70;;;;;;;22.88;85.52;100605.94;4955085;29;20063;-82
2022/10/01 09:32:49;;;;;;;4.18;1.95;;;;;;;23.01;81.10;100604.81;4955317;29;20046;-83
2022/10/01 09:35:36;;;;;;;7.72;2.50;;;;;;;22.52;84.59;100603.53;4955249;29;20078;-83
2022/10/01 09:38:16;;;;;;;5.95;2.10;;;;;;;22.90;82.68;100595.69;4954899;29;20031;-82
2022/10/01 09:40:44;;;;;;;4.70;2.30;;;;;;;22.95;80.00;100598.50;4954811;29;20043;-85
2022/10/01 09:43:10;;;;;;;5.35;2.72;;;;;;;22.66;84.45;100602.25;4954824;29;20492;-84
2022/10/01 09:45:37;;;;;;;3.78;2.35;;;;;;;23.16;83.32;100605.13;4883293;29;2095758;-85
2022/10/01 09:48:37;;;;;;;6.93;2.38;;;;;;;23.87;79.50;100604.47;4955601;29;20031;-84
2022/10/01 09:51:17;;;;;;;6.68;2.47;;;;;;;23.98;76.72;100600.84;4915303;29;20055;-85
2022/10/01 09:54:14;;;;;;;4.88;2.30;;;;;;;24.10;75.84;100596.16;4955470;29;20105;-83
2022/10/01 09:56:48;;;;;;;4.05;2.70;;;;;;;24.21;78.41;100599.03;4955689;29;20066;-84
2022/10/01 09:59:21;;;;;;;5.15;3.45;;;;;;;24.02;79.23;100587.63;4955681;29;20070;-84
2022/10/01 10:01:52;;;;;;;8.40;3.35;;;;;;;23.62;81.89;100582.41;4955929;29;20042;-86
2022/10/01 10:04:25;;;;;;;6.75;4.00;;;;;;;23.87;83.03;100582.81;4955813;29;20381;-84
2022/10/01 10:06:58;;;;;;;5.15;3.33;;;;;;;24.90;76.69;100583.94;4958310;29;20063;-81
2022/10/01 10:09:30;;;;;;;7.90;4.18;;;;;;;25.57;72.45;100568.06;4956646;29;20070;-82
2022/10/01 10:11:58;;;;;;;5.43;3.97;;;;;;;25.33;73.18;100561.31;4955990;29;20031;-85
2022/10/01 10:14:33;;;;;;;6.03;3.78;;;;;;;24.57;78.14;100568.63;4938239;29;20027;-84
2022/10/01 10:17:15;;;;;;;9.05;5.25;;;;;;;24.27;80.81;100563.63;4938510;29;20452;-83
2022/10/01 10:19:48;;;;;;;7.82;6.07;;;;;;;24.41;81.09;100564.09;4955858;29;20362;-87
2022/10/01 10:22:27;;;;;;;9.45;6.22;;;;;;;23.81;82.83;100558.59;4959824;29;20067;-85
2022/10/01 10:24:56;;;;;;;14.05;5.18;;;;;;;23.89;82.50;100563.63;4960156;29;20063;-84
2022/10/01 10:27:24;;;;;;;9.98;6.93;;;;;;;23.91;81.92;100559.59;4966500;29;20126;-83
2022/10/01 10:30:12;;;;;;;10.15;6.72;;;;;;;24.04;82.28;100561.13;4970935;29;20027;-84
2022/10/01 10:32:38;;;;;;;9.27;6.75;;;;;;;23.86;82.15;100564.94;4968016;29;20553;-83
2022/10/01 10:35:12;;;;;;;9.88;7.85;;;;;;;23.74;84.77;100553.38;4948841;29;20082;-83
2022/10/01 10:37:44;;;;;;;10.68;7.90;;;;;;;23.68;88.43;100544.38;4960279;29;20039;-83
2022/10/01 10:40:16;;;;;;;13.75;8.93;;;;;;;24.39;84.66;100550.00;4955564;29;20063;-84
2022/10/01 10:42:46;;;;;;;;;;;;;;;24.99;80.12;100550.69;4959276;29;20090;-83
2022/10/01 10:45:22;;;;;;;12.20;8.15;;;;;;;24.47;82.57;100563.91;4955405;29;19923;-84
2022/10/01 10:47:52;;;;;;;11.95;8.70;;;;;;;23.79;86.36;100558.06;4955297;29;20476;-84
2022/10/01 10:50:37;;;;;;;10.75;8.02;;;;;;;22.84;93.13;100561.53;4955190;29;20044;-82
2022/10/01 10:53:19;;;;;;;11.93;6.95;;;;;;;22.43;92.79;100557.19;4955277;29;20035;-84
2022/10/01 10:55:55;;;;;;;9.40;6.57;;;;;;;22.71;91.02;100542.06;4955598;29;20031;-84
2022/10/01 10:58:25;;;;;;;8.80;6.43;;;;;;;23.56;84.64;100532.00;4955233;29;20063;-85
2022/10/01 11:00:54;;;;;;;11.10;6.47;;;;;;;23.70;84.47;100532.47;4954856;29;20039;-84
2022/10/01 11:03:23;;;;;;;11.25;6.38;;;;;;;23.22;85.69;100535.72;4954881;29;20024;-85
2022/10/01 11:05:50;;;;;;;11.50;6.07;;;;;;;23.09;86.43;100534.97;4955048;29;20039;-84
2022/10/01 11:08:24;;;;;;;9.55;5.93;;;;;;;23.92;83.78;100520.63;4954807;29;20496;-83
2022/10/01 11:11:12;;;;;;;8.57;6.65;;;;;;;24.10;80.60;100531.16;4955742;29;20167;-83
2022/10/01 11:13:58;;;;;;;10.68;6.95;;;;;;;24.78;77.42;100537.97;4954675;29;20054;-84
2022/10/01 11:16:53;;;;;;;8.93;6.38;;;;;;;25.08;76.36;100538.31;4954438;29;20099;-84
2022/10/01 11:19:37;;;;;;;8.15;6.20;;;;;;;25.14;76.10;100540.00;4954879;29;20070;-84
2022/10/01 11:22:44;;;;;;;10.05;6.90;;;;;;;24.28;79.54;100548.22;4954575;29;20156;-84
2022/10/01 11:25:35;;;;;;;12.15;9.10;;;;;;;24.48;80.05;100559.31;4896327;29;20045;-86
2022/10/01 11:28:34;;;;;;;9.63;6.55;;;;;;;24.28;81.14;100564.47;4886984;29;20056;-84
2022/10/01 11:31:21;;;;;;;8.32;5.95;;;;;;;24.85;77.29;100541.34;4897714;29;20044;-84
2022/10/01 11:34:01;;;;;;;9.25;5.88;;;;;;;25.16;75.06;100540.56;4899002;29;20049;-82
2022/10/01 11:36:42;;;;;;;11.43;6.75;;;;;;;25.58;72.57;100537.13;4925360;29;20062;-83